sensor_id;sensor_type;location;lat;lon;timestamp;P1;durP1;ratioP1;P2;durP2;ratioP2
1682;SDS011;13252;53.596;10.060;2023-07-31T00:00:53;9.00;;;3.40;;
1682;SDS011;13252;53.596;10.060;2023-07-31T00:03:21;16.83;;;3.60;;
1682;SDS011;13252;53.596;10.060;2023-07-31T00:05:49;11.07;;;3.50;;
1682;SDS011;13252;53.596;10.060;2023-07-31T00:08:16;9.93;;;3.80;;
1682;SDS011;13252;53.596;10.060;2023-07-31T00:10:45;11.53;;;3.73;;
1682;SDS011;13252;53.596;10.060;2023-07-31T00:13:13;13.53;;;3.00;;
1682;SDS011;13252;53.596;10.060;2023-07-31T00:15:40;6.33;;;4.00;;
1682;SDS011;13252;53.596;10.060;2023-07-31T00:18:08;5.80;;;3.10;;
1682;SDS011;13252;53.596;10.060;2023-07-31T00:20:36;10.17;;;3.63;;
1682;SDS011;13252;53.596;10.060;2023-07-31T00:23:03;9.13;;;3.30;;
1682;SDS011;13252;53.596;10.060;2023-07-31T00:25:31;6.83;;;3.23;;
1682;SDS011;13252;53.596;10.060;2023-07-31T00:28:00;8.47;;;3.30;;
1682;SDS011;13252;53.596;10.060;2023-07-31T00:30:27;8.03;;;3.73;;
1682;SDS011;13252;53.596;10.060;2023-07-31T00:32:55;7.03;;;3.53;;
1682;SDS011;13252;53.596;10.060;2023-07-31T00:35:23;7.43;;;3.70;;
1682;SDS011;13252;53.596;10.060;2023-07-31T00:37:51;8.53;;;3.10;;
1682;SDS011;13252;53.596;10.060;2023-07-31T00:40:19;9.47;;;3.57;;
1682;SDS011;13252;53.596;10.060;2023-07-31T00:42:46;8.50;;;3.27;;
1682;SDS011;13252;53.596;10.060;2023-07-31T00:45:15;10.80;;;4.50;;
1682;SDS011;13252;53.596;10.060;2023-07-31T00:47:43;10.33;;;3.70;;
1682;SDS011;13252;53.596;10.060;2023-07-31T00:50:11;15.10;;;3.50;;
1682;SDS011;13252;53.596;10.060;2023-07-31T00:52:38;11.57;;;4.40;;
1682;SDS011;13252;53.596;10.060;2023-07-31T00:55:06;15.30;;;4.67;;
1682;SDS011;13252;53.596;10.060;2023-07-31T00:57:34;9.53;;;3.77;;
1682;SDS011;13252;53.596;10.060;2023-07-31T01:00:04;23.47;;;4.40;;
1682;SDS011;13252;53.596;10.060;2023-07-31T01:02:34;12.07;;;3.83;;
1682;SDS011;13252;53.596;10.060;2023-07-31T01:05:02;9.40;;;3.43;;
1682;SDS011;13252;53.596;10.060;2023-07-31T01:07:31;10.50;;;3.40;;
1682;SDS011;13252;53.596;10.060;2023-07-31T01:10:04;7.87;;;3.90;;
1682;SDS011;13252;53.596;10.060;2023-07-31T01:12:34;14.60;;;3.83;;
1682;SDS011;13252;53.596;10.060;2023-07-31T01:15:04;12.03;;;3.70;;
1682;SDS011;13252;53.596;10.060;2023-07-31T01:17:34;15.53;;;5.30;;
1682;SDS011;13252;53.596;10.060;2023-07-31T01:20:03;6.27;;;3.67;;
1682;SDS011;13252;53.596;10.060;2023-07-31T01:22:39;14.50;;;4.37;;
1682;SDS011;13252;53.596;10.060;2023-07-31T01:25:16;6.13;;;3.20;;
1682;SDS011;13252;53.596;10.060;2023-07-31T01:27:51;16.57;;;3.80;;
1682;SDS011;13252;53.596;10.060;2023-07-31T01:30:21;11.97;;;4.67;;
1682;SDS011;13252;53.596;10.060;2023-07-31T01:32:52;10.80;;;4.23;;
1682;SDS011;13252;53.596;10.060;2023-07-31T01:35:20;11.37;;;4.17;;
1682;SDS011;13252;53.596;10.060;2023-07-31T01:37:49;11.03;;;3.30;;
1682;SDS011;13252;53.596;10.060;2023-07-31T01:40:16;9.90;;;3.83;;
1682;SDS011;13252;53.596;10.060;2023-07-31T01:42:44;9.37;;;4.00;;
1682;SDS011;13252;53.596;10.060;2023-07-31T01:45:13;7.60;;;3.43;;
1682;SDS011;13252;53.596;10.060;2023-07-31T01:47:41;11.17;;;4.70;;
1682;SDS011;13252;53.596;10.060;2023-07-31T01:50:09;16.37;;;6.80;;
1682;SDS011;13252;53.596;10.060;2023-07-31T01:52:37;10.00;;;3.70;;
1682;SDS011;13252;53.596;10.060;2023-07-31T01:55:04;10.90;;;4.50;;
1682;SDS011;13252;53.596;10.060;2023-07-31T01:57:32;13.47;;;4.20;;
1682;SDS011;13252;53.596;10.060;2023-07-31T02:00:00;10.80;;;3.70;;
1682;SDS011;13252;53.596;10.060;2023-07-31T02:02:38;10.93;;;4.20;;
1682;SDS011;13252;53.596;10.060;2023-07-31T02:05:06;9.33;;;3.63;;
1682;SDS011;13252;53.596;10.060;2023-07-31T02:07:34;6.43;;;3.27;;
1682;SDS011;13252;53.596;10.060;2023-07-31T02:10:01;17.03;;;3.87;;
1682;SDS011;13252;53.596;10.060;2023-07-31T02:12:29;11.80;;;3.77;;
1682;SDS011;13252;53.596;10.060;2023-07-31T02:14:58;15.00;;;3.77;;
1682;SDS011;13252;53.596;10.060;2023-07-31T02:17:26;9.53;;;3.63;;
1682;SDS011;13252;53.596;10.060;2023-07-31T02:19:55;12.67;;;4.07;;
1682;SDS011;13252;53.596;10.060;2023-07-31T02:22:23;9.17;;;3.80;;
1682;SDS011;13252;53.596;10.060;2023-07-31T02:24:51;8.47;;;3.87;;
1682;SDS011;13252;53.596;10.060;2023-07-31T02:27:21;9.23;;;3.23;;
1682;SDS011;13252;53.596;10.060;2023-07-31T02:29:53;9.63;;;3.90;;
1682;SDS011;13252;53.596;10.060;2023-07-31T02:32:21;12.53;;;4.20;;
1682;SDS011;13252;53.596;10.060;2023-07-31T02:34:49;6.67;;;2.73;;
1682;SDS011;13252;53.596;10.060;2023-07-31T02:37:18;9.33;;;3.57;;
1682;SDS011;13252;53.596;10.060;2023-07-31T02:39:46;14.80;;;4.33;;
1682;SDS011;13252;53.596;10.060;2023-07-31T02:42:14;9.97;;;3.47;;
1682;SDS011;13252;53.596;10.060;2023-07-31T02:44:41;8.47;;;3.00;;
1682;SDS011;13252;53.596;10.060;2023-07-31T02:47:09;8.70;;;3.43;;
1682;SDS011;13252;53.596;10.060;2023-07-31T02:49:36;8.90;;;3.73;;
1682;SDS011;13252;53.596;10.060;2023-07-31T02:52:04;14.70;;;4.20;;
1682;SDS011;13252;53.596;10.060;2023-07-31T02:54:34;12.30;;;3.47;;
1682;SDS011;13252;53.596;10.060;2023-07-31T02:57:02;6.53;;;3.33;;
1682;SDS011;13252;53.596;10.060;2023-07-31T02:59:30;7.53;;;4.57;;
1682;SDS011;13252;53.596;10.060;2023-07-31T03:01:57;8.50;;;3.20;;
1682;SDS011;13252;53.596;10.060;2023-07-31T03:04:25;8.40;;;3.07;;
1682;SDS011;13252;53.596;10.060;2023-07-31T03:06:53;6.63;;;3.33;;
1682;SDS011;13252;53.596;10.060;2023-07-31T03:09:20;10.17;;;3.60;;
1682;SDS011;13252;53.596;10.060;2023-07-31T03:11:49;13.30;;;3.57;;
1682;SDS011;13252;53.596;10.060;2023-07-31T03:14:17;7.20;;;3.40;;
1682;SDS011;13252;53.596;10.060;2023-07-31T03:16:45;10.23;;;3.93;;
1682;SDS011;13252;53.596;10.060;2023-07-31T03:19:12;10.50;;;4.10;;
1682;SDS011;13252;53.596;10.060;2023-07-31T03:21:40;12.17;;;3.53;;
1682;SDS011;13252;53.596;10.060;2023-07-31T03:24:08;5.60;;;3.07;;
1682;SDS011;13252;53.596;10.060;2023-07-31T03:26:35;6.07;;;3.40;;
1682;SDS011;13252;53.596;10.060;2023-07-31T03:29:05;4.37;;;2.73;;
1682;SDS011;13252;53.596;10.060;2023-07-31T03:31:32;10.37;;;3.10;;
1682;SDS011;13252;53.596;10.060;2023-07-31T03:34:00;5.47;;;2.90;;
1682;SDS011;13252;53.596;10.060;2023-07-31T03:36:29;6.30;;;3.70;;
1682;SDS011;13252;53.596;10.060;2023-07-31T03:38:56;5.80;;;2.90;;
1682;SDS011;13252;53.596;10.060;2023-07-31T03:41:24;9.90;;;3.70;;
1682;SDS011;13252;53.596;10.060;2023-07-31T03:43:51;8.50;;;3.93;;
1682;SDS011;13252;53.596;10.060;2023-07-31T03:46:21;8.03;;;3.10;;
1682;SDS011;13252;53.596;10.060;2023-07-31T03:48:48;7.87;;;3.23;;
1682;SDS011;13252;53.596;10.060;2023-07-31T03:51:16;4.13;;;2.73;;
1682;SDS011;13252;53.596;10.060;2023-07-31T03:53:44;5.47;;;2.97;;
1682;SDS011;13252;53.596;10.060;2023-07-31T03:56:12;7.70;;;2.90;;
1682;SDS011;13252;53.596;10.060;2023-07-31T03:58:39;7.40;;;3.60;;
1682;SDS011;13252;53.596;10.060;2023-07-31T04:01:07;3.30;;;2.70;;
1682;SDS011;13252;53.596;10.060;2023-07-31T04:03:37;4.67;;;3.10;;
1682;SDS011;13252;53.596;10.060;2023-07-31T04:06:04;8.20;;;2.97;;
1682;SDS011;13252;53.596;10.060;2023-07-31T04:08:33;5.03;;;3.30;;
1682;SDS011;13252;53.596;10.060;2023-07-31T04:11:00;7.37;;;3.00;;
1682;SDS011;13252;53.596;10.060;2023-07-31T04:13:29;8.20;;;4.10;;
1682;SDS011;13252;53.596;10.060;2023-07-31T04:15:57;4.67;;;2.83;;
1682;SDS011;13252;53.596;10.060;2023-07-31T04:18:24;8.07;;;2.80;;
1682;SDS011;13252;53.596;10.060;2023-07-31T04:20:53;6.20;;;3.03;;
1682;SDS011;13252;53.596;10.060;2023-07-31T04:23:21;4.63;;;3.10;;
1682;SDS011;13252;53.596;10.060;2023-07-31T04:25:49;7.63;;;3.40;;
1682;SDS011;13252;53.596;10.060;2023-07-31T04:28:17;4.27;;;2.77;;
1682;SDS011;13252;53.596;10.060;2023-07-31T04:30:44;6.00;;;2.80;;
1682;SDS011;13252;53.596;10.060;2023-07-31T04:33:16;8.57;;;3.37;;
1682;SDS011;13252;53.596;10.060;2023-07-31T04:35:48;6.33;;;3.07;;
1682;SDS011;13252;53.596;10.060;2023-07-31T04:38:20;6.37;;;3.53;;
1682;SDS011;13252;53.596;10.060;2023-07-31T04:40:48;5.93;;;3.10;;
1682;SDS011;13252;53.596;10.060;2023-07-31T04:43:15;5.87;;;3.43;;
1682;SDS011;13252;53.596;10.060;2023-07-31T04:45:45;5.43;;;3.00;;
1682;SDS011;13252;53.596;10.060;2023-07-31T04:48:13;6.57;;;4.03;;
1682;SDS011;13252;53.596;10.060;2023-07-31T04:50:41;3.03;;;2.73;;
1682;SDS011;13252;53.596;10.060;2023-07-31T04:53:09;4.97;;;2.60;;
1682;SDS011;13252;53.596;10.060;2023-07-31T04:55:38;7.07;;;2.97;;
1682;SDS011;13252;53.596;10.060;2023-07-31T04:58:05;8.53;;;2.80;;
1682;SDS011;13252;53.596;10.060;2023-07-31T05:00:33;3.87;;;2.80;;
1682;SDS011;13252;53.596;10.060;2023-07-31T05:03:01;6.63;;;3.53;;
1682;SDS011;13252;53.596;10.060;2023-07-31T05:05:28;5.60;;;3.07;;
1682;SDS011;13252;53.596;10.060;2023-07-31T05:07:56;4.83;;;2.70;;
1682;SDS011;13252;53.596;10.060;2023-07-31T05:10:24;4.70;;;2.50;;
1682;SDS011;13252;53.596;10.060;2023-07-31T05:12:53;5.17;;;3.83;;
1682;SDS011;13252;53.596;10.060;2023-07-31T05:15:20;3.80;;;2.60;;
1682;SDS011;13252;53.596;10.060;2023-07-31T05:17:48;6.37;;;3.00;;
1682;SDS011;13252;53.596;10.060;2023-07-31T05:20:16;4.00;;;2.90;;
1682;SDS011;13252;53.596;10.060;2023-07-31T05:22:43;4.33;;;3.10;;
1682;SDS011;13252;53.596;10.060;2023-07-31T05:25:11;5.53;;;3.37;;
1682;SDS011;13252;53.596;10.060;2023-07-31T05:27:38;5.80;;;3.87;;
1682;SDS011;13252;53.596;10.060;2023-07-31T05:30:08;3.60;;;3.30;;
1682;SDS011;13252;53.596;10.060;2023-07-31T05:32:36;5.13;;;3.83;;
1682;SDS011;13252;53.596;10.060;2023-07-31T05:35:04;5.37;;;3.67;;
1682;SDS011;13252;53.596;10.060;2023-07-31T05:37:32;4.33;;;3.90;;
1682;SDS011;13252;53.596;10.060;2023-07-31T05:40:00;5.60;;;4.23;;
1682;SDS011;13252;53.596;10.060;2023-07-31T05:42:27;3.83;;;3.53;;
1682;SDS011;13252;53.596;10.060;2023-07-31T05:44:55;6.27;;;4.00;;
1682;SDS011;13252;53.596;10.060;2023-07-31T05:47:24;5.80;;;4.57;;
1682;SDS011;13252;53.596;10.060;2023-07-31T05:49:51;3.80;;;3.40;;
1682;SDS011;13252;53.596;10.060;2023-07-31T05:52:19;6.07;;;4.73;;
1682;SDS011;13252;53.596;10.060;2023-07-31T05:54:47;7.53;;;3.23;;
1682;SDS011;13252;53.596;10.060;2023-07-31T05:57:14;6.47;;;3.67;;
1682;SDS011;13252;53.596;10.060;2023-07-31T05:59:42;4.43;;;4.00;;
1682;SDS011;13252;53.596;10.060;2023-07-31T06:02:09;4.70;;;4.00;;
1682;SDS011;13252;53.596;10.060;2023-07-31T06:04:38;8.23;;;3.90;;
1682;SDS011;13252;53.596;10.060;2023-07-31T06:07:06;3.90;;;3.60;;
1682;SDS011;13252;53.596;10.060;2023-07-31T06:09:34;5.17;;;3.80;;
1682;SDS011;13252;53.596;10.060;2023-07-31T06:12:02;10.93;;;3.80;;
1682;SDS011;13252;53.596;10.060;2023-07-31T06:14:30;5.13;;;4.67;;
1682;SDS011;13252;53.596;10.060;2023-07-31T06:16:57;4.87;;;3.97;;
1682;SDS011;13252;53.596;10.060;2023-07-31T06:19:25;6.20;;;3.80;;
1682;SDS011;13252;53.596;10.060;2023-07-31T06:21:54;4.03;;;3.63;;
1682;SDS011;13252;53.596;10.060;2023-07-31T06:24:21;5.50;;;3.30;;
1682;SDS011;13252;53.596;10.060;2023-07-31T06:26:49;4.30;;;2.80;;
1682;SDS011;13252;53.596;10.060;2023-07-31T06:29:17;4.90;;;3.57;;
1682;SDS011;13252;53.596;10.060;2023-07-31T06:31:45;3.13;;;2.70;;
1682;SDS011;13252;53.596;10.060;2023-07-31T06:34:13;7.70;;;3.30;;
1682;SDS011;13252;53.596;10.060;2023-07-31T06:36:41;6.07;;;3.60;;
1682;SDS011;13252;53.596;10.060;2023-07-31T06:39:10;5.77;;;2.60;;
1682;SDS011;13252;53.596;10.060;2023-07-31T06:41:38;5.97;;;3.40;;
1682;SDS011;13252;53.596;10.060;2023-07-31T06:44:09;6.60;;;3.13;;
1682;SDS011;13252;53.596;10.060;2023-07-31T06:46:37;5.33;;;3.30;;
1682;SDS011;13252;53.596;10.060;2023-07-31T06:49:05;5.90;;;3.33;;
1682;SDS011;13252;53.596;10.060;2023-07-31T06:51:33;5.30;;;3.27;;
1682;SDS011;13252;53.596;10.060;2023-07-31T06:54:02;4.80;;;3.20;;
1682;SDS011;13252;53.596;10.060;2023-07-31T06:56:31;3.43;;;2.90;;
1682;SDS011;13252;53.596;10.060;2023-07-31T06:58:58;4.27;;;3.10;;
1682;SDS011;13252;53.596;10.060;2023-07-31T07:01:26;5.07;;;3.23;;
1682;SDS011;13252;53.596;10.060;2023-07-31T07:03:54;3.50;;;3.00;;
1682;SDS011;13252;53.596;10.060;2023-07-31T07:06:22;5.27;;;3.63;;
1682;SDS011;13252;53.596;10.060;2023-07-31T07:08:50;5.40;;;3.90;;
1682;SDS011;13252;53.596;10.060;2023-07-31T07:11:17;4.33;;;3.43;;
1682;SDS011;13252;53.596;10.060;2023-07-31T07:13:46;4.07;;;3.23;;
1682;SDS011;13252;53.596;10.060;2023-07-31T07:16:14;5.40;;;3.90;;
1682;SDS011;13252;53.596;10.060;2023-07-31T07:18:41;5.17;;;3.80;;
1682;SDS011;13252;53.596;10.060;2023-07-31T07:21:23;3.47;;;3.17;;
1682;SDS011;13252;53.596;10.060;2023-07-31T07:23:51;4.13;;;3.70;;
1682;SDS011;13252;53.596;10.060;2023-07-31T07:26:19;5.80;;;3.40;;
1682;SDS011;13252;53.596;10.060;2023-07-31T07:28:48;4.33;;;3.60;;
1682;SDS011;13252;53.596;10.060;2023-07-31T07:31:16;6.10;;;3.67;;
1682;SDS011;13252;53.596;10.060;2023-07-31T07:33:43;4.43;;;3.83;;
1682;SDS011;13252;53.596;10.060;2023-07-31T07:36:11;4.40;;;3.83;;
1682;SDS011;13252;53.596;10.060;2023-07-31T07:38:39;4.33;;;3.90;;
1682;SDS011;13252;53.596;10.060;2023-07-31T07:41:07;4.07;;;3.57;;
1682;SDS011;13252;53.596;10.060;2023-07-31T07:43:35;4.60;;;3.00;;
1682;SDS011;13252;53.596;10.060;2023-07-31T07:46:04;3.57;;;3.10;;
1682;SDS011;13252;53.596;10.060;2023-07-31T07:48:31;4.13;;;3.10;;
1682;SDS011;13252;53.596;10.060;2023-07-31T07:50:59;3.50;;;3.20;;
1682;SDS011;13252;53.596;10.060;2023-07-31T07:53:27;3.50;;;3.07;;
1682;SDS011;13252;53.596;10.060;2023-07-31T07:55:54;7.97;;;3.57;;
1682;SDS011;13252;53.596;10.060;2023-07-31T07:58:22;3.03;;;2.77;;
1682;SDS011;13252;53.596;10.060;2023-07-31T08:00:50;4.47;;;3.33;;
1682;SDS011;13252;53.596;10.060;2023-07-31T08:03:19;4.70;;;3.90;;
1682;SDS011;13252;53.596;10.060;2023-07-31T08:05:47;3.17;;;2.87;;
1682;SDS011;13252;53.596;10.060;2023-07-31T08:08:15;4.63;;;2.90;;
1682;SDS011;13252;53.596;10.060;2023-07-31T08:10:43;4.40;;;3.50;;
1682;SDS011;13252;53.596;10.060;2023-07-31T08:13:11;3.73;;;2.97;;
1682;SDS011;13252;53.596;10.060;2023-07-31T08:15:40;4.67;;;3.33;;
1682;SDS011;13252;53.596;10.060;2023-07-31T08:18:08;5.10;;;3.80;;
1682;SDS011;13252;53.596;10.060;2023-07-31T08:20:39;3.37;;;2.67;;
1682;SDS011;13252;53.596;10.060;2023-07-31T08:23:06;3.37;;;2.90;;
1682;SDS011;13252;53.596;10.060;2023-07-31T08:25:34;3.43;;;3.03;;
1682;SDS011;13252;53.596;10.060;2023-07-31T08:28:01;4.70;;;3.03;;
1682;SDS011;13252;53.596;10.060;2023-07-31T08:30:29;7.10;;;3.23;;
1682;SDS011;13252;53.596;10.060;2023-07-31T08:32:57;3.47;;;2.60;;
1682;SDS011;13252;53.596;10.060;2023-07-31T08:35:25;3.40;;;2.53;;
1682;SDS011;13252;53.596;10.060;2023-07-31T08:37:55;4.73;;;2.97;;
1682;SDS011;13252;53.596;10.060;2023-07-31T08:40:23;4.70;;;2.50;;
1682;SDS011;13252;53.596;10.060;2023-07-31T08:42:53;5.83;;;3.10;;
1682;SDS011;13252;53.596;10.060;2023-07-31T08:45:22;3.00;;;2.67;;
1682;SDS011;13252;53.596;10.060;2023-07-31T08:47:51;3.50;;;2.80;;
1682;SDS011;13252;53.596;10.060;2023-07-31T08:50:19;4.37;;;2.93;;
1682;SDS011;13252;53.596;10.060;2023-07-31T08:52:49;4.17;;;2.43;;
1682;SDS011;13252;53.596;10.060;2023-07-31T08:55:19;6.43;;;2.50;;
1682;SDS011;13252;53.596;10.060;2023-07-31T08:57:50;4.63;;;2.10;;
1682;SDS011;13252;53.596;10.060;2023-07-31T09:00:19;4.57;;;2.00;;
1682;SDS011;13252;53.596;10.060;2023-07-31T09:02:51;2.63;;;1.67;;
1682;SDS011;13252;53.596;10.060;2023-07-31T09:05:22;4.17;;;2.37;;
1682;SDS011;13252;53.596;10.060;2023-07-31T09:07:50;3.10;;;2.23;;
1682;SDS011;13252;53.596;10.060;2023-07-31T09:10:20;5.73;;;2.30;;
1682;SDS011;13252;53.596;10.060;2023-07-31T09:12:47;3.50;;;2.53;;
1682;SDS011;13252;53.596;10.060;2023-07-31T09:15:16;3.10;;;1.93;;
1682;SDS011;13252;53.596;10.060;2023-07-31T09:18:03;3.20;;;2.27;;
1682;SDS011;13252;53.596;10.060;2023-07-31T09:20:31;5.03;;;2.40;;
1682;SDS011;13252;53.596;10.060;2023-07-31T09:23:04;2.73;;;2.10;;
1682;SDS011;13252;53.596;10.060;2023-07-31T09:25:34;2.93;;;1.70;;
1682;SDS011;13252;53.596;10.060;2023-07-31T09:28:03;3.57;;;2.13;;
1682;SDS011;13252;53.596;10.060;2023-07-31T09:30:32;3.20;;;2.30;;
1682;SDS011;13252;53.596;10.060;2023-07-31T09:33:12;3.57;;;2.50;;
1682;SDS011;13252;53.596;10.060;2023-07-31T09:35:39;3.03;;;2.03;;
1682;SDS011;13252;53.596;10.060;2023-07-31T09:38:08;5.47;;;1.50;;
1682;SDS011;13252;53.596;10.060;2023-07-31T09:40:39;3.00;;;1.70;;
1682;SDS011;13252;53.596;10.060;2023-07-31T09:43:08;2.67;;;1.53;;
1682;SDS011;13252;53.596;10.060;2023-07-31T09:45:37;8.30;;;1.80;;
1682;SDS011;13252;53.596;10.060;2023-07-31T09:48:07;2.47;;;1.87;;
1682;SDS011;13252;53.596;10.060;2023-07-31T09:50:37;3.97;;;1.80;;
1682;SDS011;13252;53.596;10.060;2023-07-31T09:53:05;1.97;;;1.27;;
1682;SDS011;13252;53.596;10.060;2023-07-31T09:55:33;2.40;;;1.40;;
1682;SDS011;13252;53.596;10.060;2023-07-31T09:58:04;3.00;;;1.80;;
1682;SDS011;13252;53.596;10.060;2023-07-31T10:00:32;2.13;;;1.30;;
1682;SDS011;13252;53.596;10.060;2023-07-31T10:03:01;2.70;;;1.73;;
1682;SDS011;13252;53.596;10.060;2023-07-31T10:05:30;2.43;;;1.30;;
1682;SDS011;13252;53.596;10.060;2023-07-31T10:08:00;2.00;;;1.20;;
1682;SDS011;13252;53.596;10.060;2023-07-31T10:10:28;2.43;;;1.20;;
1682;SDS011;13252;53.596;10.060;2023-07-31T10:12:56;2.57;;;1.20;;
1682;SDS011;13252;53.596;10.060;2023-07-31T10:15:25;2.70;;;1.50;;
1682;SDS011;13252;53.596;10.060;2023-07-31T10:17:53;7.13;;;1.90;;
1682;SDS011;13252;53.596;10.060;2023-07-31T10:20:23;2.60;;;1.60;;
1682;SDS011;13252;53.596;10.060;2023-07-31T10:22:51;1.90;;;1.30;;
1682;SDS011;13252;53.596;10.060;2023-07-31T10:25:19;1.80;;;1.20;;
1682;SDS011;13252;53.596;10.060;2023-07-31T10:27:47;2.60;;;1.33;;
1682;SDS011;13252;53.596;10.060;2023-07-31T10:30:15;3.00;;;1.87;;
1682;SDS011;13252;53.596;10.060;2023-07-31T10:32:47;2.33;;;0.97;;
1682;SDS011;13252;53.596;10.060;2023-07-31T10:35:16;2.17;;;1.30;;
1682;SDS011;13252;53.596;10.060;2023-07-31T10:37:44;2.27;;;1.13;;
1682;SDS011;13252;53.596;10.060;2023-07-31T10:40:16;2.30;;;1.17;;
1682;SDS011;13252;53.596;10.060;2023-07-31T10:42:46;2.00;;;0.90;;
1682;SDS011;13252;53.596;10.060;2023-07-31T10:45:23;2.17;;;1.07;;
1682;SDS011;13252;53.596;10.060;2023-07-31T10:47:59;3.60;;;1.20;;
1682;SDS011;13252;53.596;10.060;2023-07-31T10:50:28;2.20;;;1.13;;
1682;SDS011;13252;53.596;10.060;2023-07-31T10:52:59;3.30;;;1.17;;
1682;SDS011;13252;53.596;10.060;2023-07-31T10:55:29;2.17;;;1.10;;
1682;SDS011;13252;53.596;10.060;2023-07-31T10:57:58;2.50;;;1.17;;
1682;SDS011;13252;53.596;10.060;2023-07-31T11:00:33;1.80;;;0.97;;
1682;SDS011;13252;53.596;10.060;2023-07-31T11:03:03;2.60;;;1.00;;
1682;SDS011;13252;53.596;10.060;2023-07-31T11:05:42;4.30;;;0.87;;
1682;SDS011;13252;53.596;10.060;2023-07-31T11:08:12;2.23;;;1.20;;
1682;SDS011;13252;53.596;10.060;2023-07-31T11:10:41;2.00;;;0.87;;
1682;SDS011;13252;53.596;10.060;2023-07-31T11:13:09;1.83;;;1.10;;
1682;SDS011;13252;53.596;10.060;2023-07-31T11:15:37;2.37;;;0.83;;
1682;SDS011;13252;53.596;10.060;2023-07-31T11:18:06;1.87;;;1.17;;
1682;SDS011;13252;53.596;10.060;2023-07-31T11:20:35;2.37;;;1.13;;
1682;SDS011;13252;53.596;10.060;2023-07-31T11:23:03;22.63;;;1.60;;
1682;SDS011;13252;53.596;10.060;2023-07-31T11:25:32;3.83;;;1.13;;
1682;SDS011;13252;53.596;10.060;2023-07-31T11:28:04;1.83;;;0.80;;
1682;SDS011;13252;53.596;10.060;2023-07-31T11:30:32;1.80;;;0.90;;
1682;SDS011;13252;53.596;10.060;2023-07-31T11:33:01;1.70;;;0.90;;
1682;SDS011;13252;53.596;10.060;2023-07-31T11:35:32;3.63;;;1.00;;
1682;SDS011;13252;53.596;10.060;2023-07-31T11:38:00;1.57;;;0.67;;
1682;SDS011;13252;53.596;10.060;2023-07-31T11:40:28;2.03;;;0.97;;
1682;SDS011;13252;53.596;10.060;2023-07-31T11:42:58;2.10;;;0.80;;
1682;SDS011;13252;53.596;10.060;2023-07-31T11:45:26;2.33;;;0.90;;
1682;SDS011;13252;53.596;10.060;2023-07-31T11:47:55;2.07;;;1.00;;
1682;SDS011;13252;53.596;10.060;2023-07-31T11:50:23;2.20;;;1.27;;
1682;SDS011;13252;53.596;10.060;2023-07-31T11:52:54;2.13;;;1.00;;
1682;SDS011;13252;53.596;10.060;2023-07-31T11:55:24;1.90;;;0.90;;
1682;SDS011;13252;53.596;10.060;2023-07-31T11:57:52;1.90;;;0.90;;
1682;SDS011;13252;53.596;10.060;2023-07-31T12:00:20;2.53;;;0.90;;
1682;SDS011;13252;53.596;10.060;2023-07-31T12:02:49;1.80;;;0.93;;
1682;SDS011;13252;53.596;10.060;2023-07-31T12:05:17;1.60;;;0.80;;
1682;SDS011;13252;53.596;10.060;2023-07-31T12:07:46;2.37;;;0.80;;
1682;SDS011;13252;53.596;10.060;2023-07-31T12:10:26;1.70;;;0.60;;
1682;SDS011;13252;53.596;10.060;2023-07-31T12:12:58;1.63;;;0.80;;
1682;SDS011;13252;53.596;10.060;2023-07-31T12:15:34;1.40;;;0.57;;
1682;SDS011;13252;53.596;10.060;2023-07-31T12:18:05;1.60;;;0.87;;
1682;SDS011;13252;53.596;10.060;2023-07-31T12:20:35;1.23;;;0.47;;
1682;SDS011;13252;53.596;10.060;2023-07-31T12:23:02;1.57;;;0.63;;
1682;SDS011;13252;53.596;10.060;2023-07-31T12:25:32;1.60;;;0.80;;
1682;SDS011;13252;53.596;10.060;2023-07-31T12:28:04;1.50;;;0.60;;
1682;SDS011;13252;53.596;10.060;2023-07-31T12:30:33;1.40;;;0.50;;
1682;SDS011;13252;53.596;10.060;2023-07-31T12:33:05;1.70;;;0.73;;
1682;SDS011;13252;53.596;10.060;2023-07-31T12:35:36;1.90;;;0.97;;
1682;SDS011;13252;53.596;10.060;2023-07-31T12:38:04;1.63;;;0.67;;
1682;SDS011;13252;53.596;10.060;2023-07-31T12:40:35;4.47;;;0.70;;
1682;SDS011;13252;53.596;10.060;2023-07-31T12:43:03;1.50;;;0.60;;
1682;SDS011;13252;53.596;10.060;2023-07-31T12:45:31;1.90;;;0.90;;
1682;SDS011;13252;53.596;10.060;2023-07-31T12:47:59;1.97;;;0.80;;
1682;SDS011;13252;53.596;10.060;2023-07-31T12:50:27;1.53;;;0.60;;
1682;SDS011;13252;53.596;10.060;2023-07-31T12:52:55;2.70;;;0.90;;
1682;SDS011;13252;53.596;10.060;2023-07-31T12:55:23;2.23;;;0.90;;
1682;SDS011;13252;53.596;10.060;2023-07-31T12:57:52;2.60;;;0.70;;
1682;SDS011;13252;53.596;10.060;2023-07-31T13:00:21;1.97;;;0.93;;
1682;SDS011;13252;53.596;10.060;2023-07-31T13:02:49;1.93;;;0.90;;
1682;SDS011;13252;53.596;10.060;2023-07-31T13:05:17;2.40;;;1.10;;
1682;SDS011;13252;53.596;10.060;2023-07-31T13:07:46;2.43;;;2.03;;
1682;SDS011;13252;53.596;10.060;2023-07-31T13:10:18;1.43;;;0.60;;
1682;SDS011;13252;53.596;10.060;2023-07-31T13:12:45;1.50;;;0.60;;
1682;SDS011;13252;53.596;10.060;2023-07-31T13:15:15;1.90;;;0.60;;
1682;SDS011;13252;53.596;10.060;2023-07-31T13:17:43;2.27;;;0.80;;
1682;SDS011;13252;53.596;10.060;2023-07-31T13:20:11;1.30;;;0.50;;
1682;SDS011;13252;53.596;10.060;2023-07-31T13:22:38;1.33;;;0.40;;
1682;SDS011;13252;53.596;10.060;2023-07-31T13:25:08;3.20;;;1.10;;
1682;SDS011;13252;53.596;10.060;2023-07-31T13:27:36;4.30;;;0.70;;
1682;SDS011;13252;53.596;10.060;2023-07-31T13:30:04;2.20;;;1.27;;
1682;SDS011;13252;53.596;10.060;2023-07-31T13:32:34;1.60;;;0.80;;
1682;SDS011;13252;53.596;10.060;2023-07-31T13:35:05;3.93;;;0.90;;
1682;SDS011;13252;53.596;10.060;2023-07-31T13:37:33;2.30;;;1.00;;
1682;SDS011;13252;53.596;10.060;2023-07-31T13:40:01;2.30;;;1.00;;
1682;SDS011;13252;53.596;10.060;2023-07-31T13:42:31;2.73;;;1.03;;
1682;SDS011;13252;53.596;10.060;2023-07-31T13:44:59;1.77;;;0.60;;
1682;SDS011;13252;53.596;10.060;2023-07-31T13:47:28;1.77;;;0.70;;
1682;SDS011;13252;53.596;10.060;2023-07-31T13:49:57;2.50;;;1.00;;
1682;SDS011;13252;53.596;10.060;2023-07-31T13:52:24;1.73;;;0.80;;
1682;SDS011;13252;53.596;10.060;2023-07-31T13:54:52;1.97;;;0.90;;
1682;SDS011;13252;53.596;10.060;2023-07-31T13:57:19;1.50;;;0.70;;
1682;SDS011;13252;53.596;10.060;2023-07-31T13:59:47;2.13;;;1.17;;
1682;SDS011;13252;53.596;10.060;2023-07-31T14:02:15;1.90;;;0.83;;
1682;SDS011;13252;53.596;10.060;2023-07-31T14:04:42;2.37;;;1.10;;
1682;SDS011;13252;53.596;10.060;2023-07-31T14:07:11;2.03;;;1.17;;
1682;SDS011;13252;53.596;10.060;2023-07-31T14:09:39;2.20;;;1.17;;
1682;SDS011;13252;53.596;10.060;2023-07-31T14:12:06;2.63;;;1.10;;
1682;SDS011;13252;53.596;10.060;2023-07-31T14:14:34;1.67;;;0.93;;
1682;SDS011;13252;53.596;10.060;2023-07-31T14:17:02;1.90;;;1.00;;
1682;SDS011;13252;53.596;10.060;2023-07-31T14:19:30;2.40;;;0.80;;
1682;SDS011;13252;53.596;10.060;2023-07-31T14:21:59;3.30;;;1.10;;
1682;SDS011;13252;53.596;10.060;2023-07-31T14:24:37;2.20;;;1.10;;
1682;SDS011;13252;53.596;10.060;2023-07-31T14:27:05;2.20;;;1.13;;
1682;SDS011;13252;53.596;10.060;2023-07-31T14:29:33;4.10;;;1.43;;
1682;SDS011;13252;53.596;10.060;2023-07-31T14:32:02;2.00;;;1.07;;
1682;SDS011;13252;53.596;10.060;2023-07-31T14:34:29;3.03;;;1.27;;
1682;SDS011;13252;53.596;10.060;2023-07-31T14:36:57;2.23;;;1.17;;
1682;SDS011;13252;53.596;10.060;2023-07-31T14:39:24;5.00;;;1.63;;
1682;SDS011;13252;53.596;10.060;2023-07-31T14:41:53;4.07;;;1.93;;
1682;SDS011;13252;53.596;10.060;2023-07-31T14:44:21;9.90;;;2.13;;
1682;SDS011;13252;53.596;10.060;2023-07-31T14:46:49;3.23;;;1.50;;
1682;SDS011;13252;53.596;10.060;2023-07-31T14:49:16;4.37;;;1.50;;
1682;SDS011;13252;53.596;10.060;2023-07-31T14:51:44;2.37;;;1.03;;
1682;SDS011;13252;53.596;10.060;2023-07-31T14:54:12;2.20;;;1.43;;